sensor_id;sensor_type;location;lat;lon;timestamp;P1;durP1;ratioP1;P2;durP2;ratioP2
9445;SDS011;4761;49.490;10.908;2022-12-07T00:00:39;2.13;;;2.03;;
9445;SDS011;4761;49.490;10.908;2022-12-07T00:03:05;2.60;;;2.40;;
9445;SDS011;4761;49.490;10.908;2022-12-07T00:05:30;2.30;;;2.10;;
9445;SDS011;4761;49.490;10.908;2022-12-07T00:07:56;2.50;;;2.30;;
9445;SDS011;4761;49.490;10.908;2022-12-07T00:10:21;2.60;;;2.40;;
9445;SDS011;4761;49.490;10.908;2022-12-07T00:12:47;2.63;;;2.43;;
9445;SDS011;4761;49.490;10.908;2022-12-07T00:15:12;2.50;;;2.30;;
9445;SDS011;4761;49.490;10.908;2022-12-07T00:17:38;2.93;;;2.40;;
9445;SDS011;4761;49.490;10.908;2022-12-07T00:20:03;3.00;;;2.70;;
9445;SDS011;4761;49.490;10.908;2022-12-07T00:22:30;3.57;;;2.77;;
9445;SDS011;4761;49.490;10.908;2022-12-07T00:24:55;2.83;;;2.60;;
9445;SDS011;4761;49.490;10.908;2022-12-07T00:27:21;2.80;;;2.60;;
9445;SDS011;4761;49.490;10.908;2022-12-07T00:29:46;2.70;;;2.50;;
9445;SDS011;4761;49.490;10.908;2022-12-07T00:32:12;3.13;;;2.83;;
9445;SDS011;4761;49.490;10.908;2022-12-07T00:34:37;2.87;;;2.67;;
9445;SDS011;4761;49.490;10.908;2022-12-07T00:37:03;3.30;;;2.80;;
9445;SDS011;4761;49.490;10.908;2022-12-07T00:39:28;3.17;;;2.90;;
9445;SDS011;4761;49.490;10.908;2022-12-07T00:41:54;2.97;;;2.70;;
9445;SDS011;4761;49.490;10.908;2022-12-07T00:44:19;2.90;;;2.63;;
9445;SDS011;4761;49.490;10.908;2022-12-07T00:46:45;3.40;;;2.70;;
9445;SDS011;4761;49.490;10.908;2022-12-07T00:49:11;2.93;;;2.73;;
9445;SDS011;4761;49.490;10.908;2022-12-07T00:51:36;3.40;;;3.10;;
9445;SDS011;4761;49.490;10.908;2022-12-07T00:54:02;3.27;;;2.97;;
9445;SDS011;4761;49.490;10.908;2022-12-07T00:56:28;2.93;;;2.63;;
9445;SDS011;4761;49.490;10.908;2022-12-07T00:58:55;2.70;;;2.50;;
9445;SDS011;4761;49.490;10.908;2022-12-07T01:01:26;3.20;;;2.90;;
9445;SDS011;4761;49.490;10.908;2022-12-07T01:03:53;3.03;;;2.73;;
9445;SDS011;4761;49.490;10.908;2022-12-07T01:06:19;3.13;;;2.83;;
9445;SDS011;4761;49.490;10.908;2022-12-07T01:08:46;3.07;;;2.77;;
9445;SDS011;4761;49.490;10.908;2022-12-07T01:11:14;3.00;;;2.80;;
9445;SDS011;4761;49.490;10.908;2022-12-07T01:13:41;3.20;;;2.90;;
9445;SDS011;4761;49.490;10.908;2022-12-07T01:16:08;3.47;;;3.17;;
9445;SDS011;4761;49.490;10.908;2022-12-07T01:18:36;3.57;;;3.20;;
9445;SDS011;4761;49.490;10.908;2022-12-07T01:21:13;3.00;;;2.80;;
9445;SDS011;4761;49.490;10.908;2022-12-07T01:23:40;3.10;;;2.90;;
9445;SDS011;4761;49.490;10.908;2022-12-07T01:26:09;3.50;;;3.20;;
9445;SDS011;4761;49.490;10.908;2022-12-07T01:28:36;2.90;;;2.70;;
9445;SDS011;4761;49.490;10.908;2022-12-07T01:31:03;3.17;;;2.90;;
9445;SDS011;4761;49.490;10.908;2022-12-07T01:33:34;3.30;;;3.00;;
9445;SDS011;4761;49.490;10.908;2022-12-07T01:36:02;3.50;;;3.00;;
9445;SDS011;4761;49.490;10.908;2022-12-07T01:38:29;3.17;;;2.87;;
9445;SDS011;4761;49.490;10.908;2022-12-07T01:40:55;3.73;;;3.43;;
9445;SDS011;4761;49.490;10.908;2022-12-07T01:43:22;4.73;;;3.43;;
9445;SDS011;4761;49.490;10.908;2022-12-07T01:45:49;3.47;;;3.17;;
9445;SDS011;4761;49.490;10.908;2022-12-07T01:48:15;4.03;;;3.40;;
9445;SDS011;4761;49.490;10.908;2022-12-07T01:50:43;3.80;;;3.50;;
9445;SDS011;4761;49.490;10.908;2022-12-07T01:53:13;3.87;;;3.57;;
9445;SDS011;4761;49.490;10.908;2022-12-07T01:55:40;3.87;;;3.43;;
9445;SDS011;4761;49.490;10.908;2022-12-07T01:58:08;4.13;;;3.73;;
9445;SDS011;4761;49.490;10.908;2022-12-07T02:00:35;3.93;;;3.50;;
9445;SDS011;4761;49.490;10.908;2022-12-07T02:03:04;3.70;;;3.40;;
9445;SDS011;4761;49.490;10.908;2022-12-07T02:05:30;4.20;;;3.80;;
9445;SDS011;4761;49.490;10.908;2022-12-07T02:07:57;4.17;;;3.77;;
9445;SDS011;4761;49.490;10.908;2022-12-07T02:10:28;3.90;;;3.50;;
9445;SDS011;4761;49.490;10.908;2022-12-07T02:13:00;3.90;;;3.60;;
9445;SDS011;4761;49.490;10.908;2022-12-07T02:15:33;4.03;;;3.63;;
9445;SDS011;4761;49.490;10.908;2022-12-07T02:18:07;4.27;;;3.87;;
9445;SDS011;4761;49.490;10.908;2022-12-07T02:20:47;3.50;;;3.20;;
9445;SDS011;4761;49.490;10.908;2022-12-07T02:26:19;3.90;;;3.60;;
9445;SDS011;4761;49.490;10.908;2022-12-07T02:29:09;4.50;;;4.10;;
9445;SDS011;4761;49.490;10.908;2022-12-07T02:31:35;4.27;;;3.90;;
9445;SDS011;4761;49.490;10.908;2022-12-07T02:34:08;4.40;;;4.00;;
9445;SDS011;4761;49.490;10.908;2022-12-07T02:36:42;4.63;;;4.23;;
9445;SDS011;4761;49.490;10.908;2022-12-07T02:39:15;3.83;;;3.53;;
9445;SDS011;4761;49.490;10.908;2022-12-07T02:41:47;4.30;;;3.90;;
9445;SDS011;4761;49.490;10.908;2022-12-07T02:44:20;4.43;;;4.03;;
9445;SDS011;4761;49.490;10.908;2022-12-07T02:46:51;4.87;;;4.30;;
9445;SDS011;4761;49.490;10.908;2022-12-07T02:49:21;4.60;;;4.20;;
9445;SDS011;4761;49.490;10.908;2022-12-07T02:51:49;4.53;;;3.97;;
9445;SDS011;4761;49.490;10.908;2022-12-07T02:54:16;4.33;;;4.03;;
9445;SDS011;4761;49.490;10.908;2022-12-07T03:15:40;4.50;;;4.07;;
9445;SDS011;4761;49.490;10.908;2022-12-07T03:18:15;4.33;;;4.00;;
9445;SDS011;4761;49.490;10.908;2022-12-07T03:20:45;4.47;;;4.07;;
9445;SDS011;4761;49.490;10.908;2022-12-07T03:23:13;4.60;;;4.20;;
9445;SDS011;4761;49.490;10.908;2022-12-07T03:25:43;4.53;;;4.13;;
9445;SDS011;4761;49.490;10.908;2022-12-07T03:28:13;4.80;;;4.30;;
9445;SDS011;4761;49.490;10.908;2022-12-07T03:30:44;4.53;;;4.13;;
9445;SDS011;4761;49.490;10.908;2022-12-07T03:33:52;4.73;;;4.30;;
9445;SDS011;4761;49.490;10.908;2022-12-07T03:36:21;4.90;;;4.30;;
9445;SDS011;4761;49.490;10.908;2022-12-07T03:39:07;4.60;;;4.20;;
9445;SDS011;4761;49.490;10.908;2022-12-07T03:41:39;4.50;;;4.10;;
9445;SDS011;4761;49.490;10.908;2022-12-07T03:44:05;5.00;;;4.50;;
9445;SDS011;4761;49.490;10.908;2022-12-07T03:52:11;4.83;;;4.37;;
9445;SDS011;4761;49.490;10.908;2022-12-07T03:57:33;4.67;;;4.27;;
9445;SDS011;4761;49.490;10.908;2022-12-07T04:00:01;5.10;;;4.70;;
9445;SDS011;4761;49.490;10.908;2022-12-07T04:02:29;5.77;;;4.40;;
9445;SDS011;4761;49.490;10.908;2022-12-07T04:04:55;5.20;;;4.77;;
9445;SDS011;4761;49.490;10.908;2022-12-07T04:07:21;4.83;;;4.43;;
9445;SDS011;4761;49.490;10.908;2022-12-07T04:09:47;4.70;;;4.30;;
9445;SDS011;4761;49.490;10.908;2022-12-07T04:12:12;4.80;;;4.40;;
9445;SDS011;4761;49.490;10.908;2022-12-07T04:14:38;4.80;;;4.40;;
9445;SDS011;4761;49.490;10.908;2022-12-07T04:17:03;4.80;;;4.40;;
9445;SDS011;4761;49.490;10.908;2022-12-07T04:19:30;4.87;;;4.47;;
9445;SDS011;4761;49.490;10.908;2022-12-07T04:21:58;4.03;;;3.73;;
9445;SDS011;4761;49.490;10.908;2022-12-07T04:24:25;4.80;;;4.40;;
9445;SDS011;4761;49.490;10.908;2022-12-07T04:26:51;5.03;;;4.53;;
9445;SDS011;4761;49.490;10.908;2022-12-07T04:29:17;5.17;;;4.67;;
9445;SDS011;4761;49.490;10.908;2022-12-07T04:31:43;5.17;;;4.67;;
9445;SDS011;4761;49.490;10.908;2022-12-07T04:34:09;5.27;;;4.77;;
9445;SDS011;4761;49.490;10.908;2022-12-07T04:36:35;4.80;;;4.40;;
9445;SDS011;4761;49.490;10.908;2022-12-07T04:39:01;5.20;;;4.80;;
9445;SDS011;4761;49.490;10.908;2022-12-07T04:41:28;6.20;;;5.00;;
9445;SDS011;4761;49.490;10.908;2022-12-07T04:43:54;5.30;;;4.80;;
9445;SDS011;4761;49.490;10.908;2022-12-07T04:46:25;5.40;;;4.97;;
9445;SDS011;4761;49.490;10.908;2022-12-07T04:48:52;5.33;;;4.83;;
9445;SDS011;4761;49.490;10.908;2022-12-07T04:51:19;5.67;;;5.10;;
9445;SDS011;4761;49.490;10.908;2022-12-07T04:53:46;5.27;;;4.87;;
9445;SDS011;4761;49.490;10.908;2022-12-07T04:56:13;5.43;;;4.93;;
9445;SDS011;4761;49.490;10.908;2022-12-07T04:58:40;5.27;;;4.87;;
9445;SDS011;4761;49.490;10.908;2022-12-07T05:01:06;6.00;;;5.50;;
9445;SDS011;4761;49.490;10.908;2022-12-07T05:03:32;5.53;;;5.03;;
9445;SDS011;4761;49.490;10.908;2022-12-07T05:05:57;5.50;;;5.00;;
9445;SDS011;4761;49.490;10.908;2022-12-07T05:08:23;6.13;;;5.60;;
9445;SDS011;4761;49.490;10.908;2022-12-07T05:10:49;5.27;;;4.77;;
9445;SDS011;4761;49.490;10.908;2022-12-07T05:13:14;5.43;;;4.87;;
9445;SDS011;4761;49.490;10.908;2022-12-07T05:15:40;6.07;;;5.33;;
9445;SDS011;4761;49.490;10.908;2022-12-07T05:18:08;5.67;;;5.17;;
9445;SDS011;4761;49.490;10.908;2022-12-07T05:20:34;5.93;;;5.30;;
9445;SDS011;4761;49.490;10.908;2022-12-07T05:23:00;6.23;;;5.63;;
9445;SDS011;4761;49.490;10.908;2022-12-07T05:25:25;6.33;;;5.73;;
9445;SDS011;4761;49.490;10.908;2022-12-07T05:27:51;6.27;;;5.67;;
9445;SDS011;4761;49.490;10.908;2022-12-07T05:30:16;6.07;;;5.47;;
9445;SDS011;4761;49.490;10.908;2022-12-07T05:32:42;5.93;;;5.43;;
9445;SDS011;4761;49.490;10.908;2022-12-07T05:35:07;5.77;;;5.27;;
9445;SDS011;4761;49.490;10.908;2022-12-07T05:37:33;6.57;;;6.03;;
9445;SDS011;4761;49.490;10.908;2022-12-07T05:39:58;6.30;;;5.70;;
9445;SDS011;4761;49.490;10.908;2022-12-07T05:42:24;6.57;;;5.97;;
9445;SDS011;4761;49.490;10.908;2022-12-07T05:44:49;5.97;;;5.37;;
9445;SDS011;4761;49.490;10.908;2022-12-07T05:47:15;6.60;;;6.00;;
9445;SDS011;4761;49.490;10.908;2022-12-07T05:49:41;6.43;;;5.83;;
9445;SDS011;4761;49.490;10.908;2022-12-07T05:52:06;6.17;;;5.67;;
9445;SDS011;4761;49.490;10.908;2022-12-07T05:54:32;6.50;;;5.83;;
9445;SDS011;4761;49.490;10.908;2022-12-07T05:56:58;6.77;;;6.07;;
9445;SDS011;4761;49.490;10.908;2022-12-07T05:59:24;7.30;;;6.50;;
9445;SDS011;4761;49.490;10.908;2022-12-07T06:01:54;7.07;;;6.40;;
9445;SDS011;4761;49.490;10.908;2022-12-07T06:04:25;6.80;;;6.17;;
9445;SDS011;4761;49.490;10.908;2022-12-07T06:06:52;7.30;;;6.60;;
9445;SDS011;4761;49.490;10.908;2022-12-07T06:09:18;6.90;;;6.30;;
9445;SDS011;4761;49.490;10.908;2022-12-07T06:11:45;6.40;;;5.80;;
9445;SDS011;4761;49.490;10.908;2022-12-07T06:14:29;6.93;;;6.33;;
9445;SDS011;4761;49.490;10.908;2022-12-07T06:16:55;6.43;;;5.70;;
9445;SDS011;4761;49.490;10.908;2022-12-07T06:19:20;7.17;;;6.47;;
9445;SDS011;4761;49.490;10.908;2022-12-07T06:21:46;7.37;;;6.67;;
9445;SDS011;4761;49.490;10.908;2022-12-07T06:24:12;7.10;;;6.40;;
9445;SDS011;4761;49.490;10.908;2022-12-07T06:26:39;6.70;;;6.10;;
9445;SDS011;4761;49.490;10.908;2022-12-07T06:29:05;6.80;;;5.93;;
9445;SDS011;4761;49.490;10.908;2022-12-07T06:31:31;7.10;;;6.40;;
9445;SDS011;4761;49.490;10.908;2022-12-07T06:33:58;7.43;;;6.67;;
9445;SDS011;4761;49.490;10.908;2022-12-07T06:36:24;7.73;;;6.93;;
9445;SDS011;4761;49.490;10.908;2022-12-07T06:38:49;7.03;;;6.30;;
9445;SDS011;4761;49.490;10.908;2022-12-07T06:41:15;6.63;;;5.97;;
9445;SDS011;4761;49.490;10.908;2022-12-07T06:43:40;7.10;;;6.40;;
9445;SDS011;4761;49.490;10.908;2022-12-07T06:46:07;6.60;;;6.00;;
9445;SDS011;4761;49.490;10.908;2022-12-07T06:48:32;6.80;;;6.20;;
9445;SDS011;4761;49.490;10.908;2022-12-07T06:50:58;6.97;;;6.37;;
9445;SDS011;4761;49.490;10.908;2022-12-07T06:53:24;7.10;;;6.40;;
9445;SDS011;4761;49.490;10.908;2022-12-07T06:55:49;7.00;;;6.30;;
9445;SDS011;4761;49.490;10.908;2022-12-07T06:58:15;6.80;;;6.20;;
9445;SDS011;4761;49.490;10.908;2022-12-07T07:00:41;6.97;;;6.27;;
9445;SDS011;4761;49.490;10.908;2022-12-07T07:03:07;6.57;;;5.97;;
9445;SDS011;4761;49.490;10.908;2022-12-07T07:05:33;6.90;;;6.30;;
9445;SDS011;4761;49.490;10.908;2022-12-07T07:07:58;6.90;;;6.20;;
9445;SDS011;4761;49.490;10.908;2022-12-07T07:10:24;7.00;;;6.40;;
9445;SDS011;4761;49.490;10.908;2022-12-07T07:12:49;6.90;;;6.30;;
9445;SDS011;4761;49.490;10.908;2022-12-07T07:15:15;7.53;;;6.83;;
9445;SDS011;4761;49.490;10.908;2022-12-07T07:17:41;7.70;;;7.00;;
9445;SDS011;4761;49.490;10.908;2022-12-07T07:20:06;7.57;;;6.87;;
9445;SDS011;4761;49.490;10.908;2022-12-07T07:22:32;7.43;;;6.73;;
9445;SDS011;4761;49.490;10.908;2022-12-07T07:24:57;7.47;;;6.77;;
9445;SDS011;4761;49.490;10.908;2022-12-07T07:27:23;8.03;;;7.33;;
9445;SDS011;4761;49.490;10.908;2022-12-07T07:29:48;8.67;;;7.87;;
9445;SDS011;4761;49.490;10.908;2022-12-07T07:32:14;7.77;;;7.03;;
9445;SDS011;4761;49.490;10.908;2022-12-07T07:34:39;7.20;;;6.60;;
9445;SDS011;4761;49.490;10.908;2022-12-07T07:37:05;7.80;;;7.10;;
9445;SDS011;4761;49.490;10.908;2022-12-07T07:39:30;8.50;;;7.70;;
9445;SDS011;4761;49.490;10.908;2022-12-07T07:41:56;8.30;;;7.50;;
9445;SDS011;4761;49.490;10.908;2022-12-07T07:44:21;8.13;;;7.43;;
9445;SDS011;4761;49.490;10.908;2022-12-07T07:46:47;8.07;;;7.37;;
9445;SDS011;4761;49.490;10.908;2022-12-07T07:49:12;8.03;;;7.23;;
9445;SDS011;4761;49.490;10.908;2022-12-07T07:51:38;7.77;;;7.07;;
9445;SDS011;4761;49.490;10.908;2022-12-07T07:54:03;7.90;;;7.20;;
9445;SDS011;4761;49.490;10.908;2022-12-07T07:56:29;7.17;;;6.47;;
9445;SDS011;4761;49.490;10.908;2022-12-07T07:58:55;7.50;;;6.80;;
9445;SDS011;4761;49.490;10.908;2022-12-07T08:01:20;7.30;;;6.60;;
9445;SDS011;4761;49.490;10.908;2022-12-07T08:03:46;7.10;;;6.40;;
9445;SDS011;4761;49.490;10.908;2022-12-07T08:06:12;7.23;;;6.63;;
9445;SDS011;4761;49.490;10.908;2022-12-07T08:08:37;7.80;;;7.00;;
9445;SDS011;4761;49.490;10.908;2022-12-07T08:11:07;7.43;;;6.77;;
9445;SDS011;4761;49.490;10.908;2022-12-07T08:13:33;7.87;;;7.07;;
9445;SDS011;4761;49.490;10.908;2022-12-07T08:16:03;6.87;;;6.17;;
9445;SDS011;4761;49.490;10.908;2022-12-07T08:18:36;6.97;;;6.37;;
9445;SDS011;4761;49.490;10.908;2022-12-07T08:21:03;7.53;;;6.83;;
9445;SDS011;4761;49.490;10.908;2022-12-07T08:23:29;7.47;;;6.40;;
9445;SDS011;4761;49.490;10.908;2022-12-07T08:25:59;7.97;;;6.73;;
9445;SDS011;4761;49.490;10.908;2022-12-07T08:28:29;7.23;;;6.60;;
9445;SDS011;4761;49.490;10.908;2022-12-07T08:30:58;7.43;;;5.97;;
9445;SDS011;4761;49.490;10.908;2022-12-07T08:33:25;7.57;;;6.87;;
9445;SDS011;4761;49.490;10.908;2022-12-07T08:35:50;7.97;;;7.07;;
9445;SDS011;4761;49.490;10.908;2022-12-07T08:38:16;7.77;;;7.00;;
9445;SDS011;4761;49.490;10.908;2022-12-07T08:40:41;7.60;;;6.90;;
9445;SDS011;4761;49.490;10.908;2022-12-07T08:43:07;6.83;;;6.23;;
9445;SDS011;4761;49.490;10.908;2022-12-07T08:45:32;6.87;;;6.23;;
9445;SDS011;4761;49.490;10.908;2022-12-07T08:48:04;7.27;;;6.57;;
9445;SDS011;4761;49.490;10.908;2022-12-07T08:50:34;7.47;;;6.77;;
9445;SDS011;4761;49.490;10.908;2022-12-07T08:53:02;7.20;;;6.60;;
9445;SDS011;4761;49.490;10.908;2022-12-07T08:55:29;7.43;;;6.73;;
9445;SDS011;4761;49.490;10.908;2022-12-07T08:57:55;7.13;;;6.20;;
9445;SDS011;4761;49.490;10.908;2022-12-07T09:00:22;7.40;;;6.70;;
9445;SDS011;4761;49.490;10.908;2022-12-07T09:02:47;6.97;;;6.27;;
9445;SDS011;4761;49.490;10.908;2022-12-07T09:05:13;6.13;;;5.53;;
9445;SDS011;4761;49.490;10.908;2022-12-07T09:07:42;5.70;;;5.20;;
9445;SDS011;4761;49.490;10.908;2022-12-07T09:10:11;6.60;;;6.00;;
9445;SDS011;4761;49.490;10.908;2022-12-07T09:12:36;6.17;;;5.57;;
9445;SDS011;4761;49.490;10.908;2022-12-07T09:15:02;6.83;;;5.70;;
9445;SDS011;4761;49.490;10.908;2022-12-07T09:17:31;11.63;;;6.67;;
9445;SDS011;4761;49.490;10.908;2022-12-07T09:19:57;6.13;;;5.53;;
9445;SDS011;4761;49.490;10.908;2022-12-07T09:22:23;5.47;;;4.97;;
9445;SDS011;4761;49.490;10.908;2022-12-07T09:24:48;6.30;;;5.70;;
9445;SDS011;4761;49.490;10.908;2022-12-07T09:27:14;5.83;;;5.33;;
9445;SDS011;4761;49.490;10.908;2022-12-07T09:29:41;6.13;;;5.53;;
9445;SDS011;4761;49.490;10.908;2022-12-07T09:32:06;5.70;;;5.00;;
9445;SDS011;4761;49.490;10.908;2022-12-07T09:34:32;4.90;;;4.50;;
9445;SDS011;4761;49.490;10.908;2022-12-07T09:36:58;5.17;;;4.67;;
9445;SDS011;4761;49.490;10.908;2022-12-07T09:39:26;5.20;;;4.70;;
9445;SDS011;4761;49.490;10.908;2022-12-07T09:41:52;4.97;;;4.53;;
9445;SDS011;4761;49.490;10.908;2022-12-07T09:44:20;5.20;;;4.70;;
9445;SDS011;4761;49.490;10.908;2022-12-07T09:46:48;6.30;;;4.47;;
9445;SDS011;4761;49.490;10.908;2022-12-07T09:49:16;5.47;;;4.97;;
9445;SDS011;4761;49.490;10.908;2022-12-07T09:51:44;5.00;;;4.60;;
9445;SDS011;4761;49.490;10.908;2022-12-07T09:54:14;5.20;;;4.67;;
9445;SDS011;4761;49.490;10.908;2022-12-07T09:56:42;4.83;;;4.37;;
9445;SDS011;4761;49.490;10.908;2022-12-07T09:59:09;4.80;;;4.40;;
9445;SDS011;4761;49.490;10.908;2022-12-07T10:01:39;4.47;;;4.10;;
9445;SDS011;4761;49.490;10.908;2022-12-07T10:04:11;4.87;;;4.30;;
9445;SDS011;4761;49.490;10.908;2022-12-07T10:06:40;4.67;;;4.27;;
9445;SDS011;4761;49.490;10.908;2022-12-07T10:09:10;4.93;;;4.47;;
9445;SDS011;4761;49.490;10.908;2022-12-07T10:14:30;4.60;;;4.20;;
9445;SDS011;4761;49.490;10.908;2022-12-07T10:16:58;4.60;;;3.97;;
9445;SDS011;4761;49.490;10.908;2022-12-07T10:19:25;4.90;;;4.50;;
9445;SDS011;4761;49.490;10.908;2022-12-07T10:22:02;5.30;;;4.80;;
9445;SDS011;4761;49.490;10.908;2022-12-07T10:24:36;5.23;;;4.73;;
9445;SDS011;4761;49.490;10.908;2022-12-07T10:27:04;5.57;;;4.20;;
9445;SDS011;4761;49.490;10.908;2022-12-07T10:29:37;4.70;;;4.30;;
9445;SDS011;4761;49.490;10.908;2022-12-07T10:34:41;5.30;;;4.73;;
9445;SDS011;4761;49.490;10.908;2022-12-07T10:39:43;5.03;;;4.53;;
9445;SDS011;4761;49.490;10.908;2022-12-07T10:42:16;4.70;;;4.30;;
9445;SDS011;4761;49.490;10.908;2022-12-07T10:44:41;4.90;;;4.50;;
9445;SDS011;4761;49.490;10.908;2022-12-07T10:47:11;4.80;;;4.40;;
9445;SDS011;4761;49.490;10.908;2022-12-07T11:00:34;4.50;;;4.10;;
9445;SDS011;4761;49.490;10.908;2022-12-07T11:03:26;4.43;;;4.00;;
9445;SDS011;4761;49.490;10.908;2022-12-07T11:11:52;4.80;;;4.30;;
9445;SDS011;4761;49.490;10.908;2022-12-07T11:14:36;4.40;;;4.00;;
9445;SDS011;4761;49.490;10.908;2022-12-07T11:17:14;5.10;;;4.60;;
9445;SDS011;4761;49.490;10.908;2022-12-07T11:19:54;4.77;;;4.20;;
9445;SDS011;4761;49.490;10.908;2022-12-07T11:22:46;4.87;;;3.90;;
9445;SDS011;4761;49.490;10.908;2022-12-07T11:25:30;4.50;;;4.07;;
9445;SDS011;4761;49.490;10.908;2022-12-07T11:30:48;4.57;;;4.17;;
9445;SDS011;4761;49.490;10.908;2022-12-07T11:33:29;4.60;;;4.20;;
9445;SDS011;4761;49.490;10.908;2022-12-07T11:41:15;4.73;;;4.33;;
9445;SDS011;4761;49.490;10.908;2022-12-07T11:44:07;4.50;;;4.10;;
9445;SDS011;4761;49.490;10.908;2022-12-07T11:46:46;4.40;;;4.00;;
9445;SDS011;4761;49.490;10.908;2022-12-07T11:51:57;4.43;;;3.93;;
9445;SDS011;4761;49.490;10.908;2022-12-07T11:54:29;4.93;;;4.53;;
9445;SDS011;4761;49.490;10.908;2022-12-07T11:57:00;4.37;;;3.97;;
9445;SDS011;4761;49.490;10.908;2022-12-07T11:59:36;4.47;;;4.07;;
9445;SDS011;4761;49.490;10.908;2022-12-07T12:02:16;4.70;;;4.30;;
9445;SDS011;4761;49.490;10.908;2022-12-07T12:04:51;4.67;;;4.27;;
9445;SDS011;4761;49.490;10.908;2022-12-07T12:07:30;4.80;;;4.30;;
9445;SDS011;4761;49.490;10.908;2022-12-07T12:09:58;4.73;;;4.23;;
9445;SDS011;4761;49.490;10.908;2022-12-07T12:12:47;4.70;;;4.30;;
9445;SDS011;4761;49.490;10.908;2022-12-07T12:15:35;4.23;;;3.83;;
9445;SDS011;4761;49.490;10.908;2022-12-07T12:18:32;5.97;;;5.37;;
9445;SDS011;4761;49.490;10.908;2022-12-07T12:21:16;5.30;;;4.90;;
9445;SDS011;4761;49.490;10.908;2022-12-07T12:23:48;5.37;;;4.87;;
9445;SDS011;4761;49.490;10.908;2022-12-07T12:26:21;5.33;;;4.83;;
9445;SDS011;4761;49.490;10.908;2022-12-07T12:33:48;5.20;;;4.77;;
9445;SDS011;4761;49.490;10.908;2022-12-07T12:36:23;5.83;;;5.33;;
9445;SDS011;4761;49.490;10.908;2022-12-07T12:47:01;4.70;;;4.30;;
9445;SDS011;4761;49.490;10.908;2022-12-07T12:49:33;5.53;;;4.73;;
9445;SDS011;4761;49.490;10.908;2022-12-07T12:52:48;4.90;;;4.50;;
9445;SDS011;4761;49.490;10.908;2022-12-07T12:54:58;4.70;;;4.30;;
9445;SDS011;4761;49.490;10.908;2022-12-07T12:57:32;4.43;;;4.03;;
9445;SDS011;4761;49.490;10.908;2022-12-07T13:00:02;4.70;;;4.30;;
9445;SDS011;4761;49.490;10.908;2022-12-07T13:02:50;3.77;;;3.47;;
9445;SDS011;4761;49.490;10.908;2022-12-07T13:13:37;4.50;;;3.87;;
9445;SDS011;4761;49.490;10.908;2022-12-07T13:15:52;4.03;;;3.73;;
9445;SDS011;4761;49.490;10.908;2022-12-07T13:23:38;4.53;;;3.97;;
9445;SDS011;4761;49.490;10.908;2022-12-07T13:31:33;5.40;;;4.23;;
9445;SDS011;4761;49.490;10.908;2022-12-07T13:34:05;4.70;;;4.13;;
9445;SDS011;4761;49.490;10.908;2022-12-07T13:36:51;5.00;;;4.30;;
9445;SDS011;4761;49.490;10.908;2022-12-07T13:39:18;5.10;;;4.30;;
9445;SDS011;4761;49.490;10.908;2022-12-07T13:41:44;4.33;;;3.93;;
9445;SDS011;4761;49.490;10.908;2022-12-07T13:44:14;5.07;;;4.43;;
9445;SDS011;4761;49.490;10.908;2022-12-07T13:46:55;4.50;;;4.10;;
9445;SDS011;4761;49.490;10.908;2022-12-07T13:49:32;5.17;;;4.70;;
9445;SDS011;4761;49.490;10.908;2022-12-07T13:57:26;5.20;;;4.70;;
9445;SDS011;4761;49.490;10.908;2022-12-07T13:59:53;4.57;;;4.13;;
9445;SDS011;4761;49.490;10.908;2022-12-07T14:02:20;5.20;;;4.67;;
9445;SDS011;4761;49.490;10.908;2022-12-07T14:04:51;4.87;;;4.33;;
9445;SDS011;4761;49.490;10.908;2022-12-07T14:07:30;5.30;;;4.80;;
9445;SDS011;4761;49.490;10.908;2022-12-07T14:09:59;5.20;;;4.50;;
9445;SDS011;4761;49.490;10.908;2022-12-07T14:12:26;4.83;;;4.37;;
9445;SDS011;4761;49.490;10.908;2022-12-07T14:14:53;4.40;;;4.00;;
9445;SDS011;4761;49.490;10.908;2022-12-07T14:17:24;4.00;;;3.70;;
9445;SDS011;4761;49.490;10.908;2022-12-07T14:22:22;4.83;;;4.20;;
9445;SDS011;4761;49.490;10.908;2022-12-07T14:27:36;4.70;;;3.97;;
9445;SDS011;4761;49.490;10.908;2022-12-07T14:30:02;6.50;;;4.47;;
9445;SDS011;4761;49.490;10.908;2022-12-07T14:32:29;4.90;;;4.30;;
9445;SDS011;4761;49.490;10.908;2022-12-07T14:37:33;4.67;;;4.27;;
9445;SDS011;4761;49.490;10.908;2022-12-07T14:39:59;5.70;;;4.27;;
9445;SDS011;4761;49.490;10.908;2022-12-07T14:42:26;4.57;;;4.17;;
9445;SDS011;4761;49.490;10.908;2022-12-07T14:44:53;4.93;;;4.43;;
9445;SDS011;4761;49.490;10.908;2022-12-07T14:47:19;6.30;;;4.47;;
9445;SDS011;4761;49.490;10.908;2022-12-07T14:49:44;4.80;;;4.30;;
9445;SDS011;4761;49.490;10.908;2022-12-07T14:52:15;4.07;;;3.77;;
9445;SDS011;4761;49.490;10.908;2022-12-07T14:54:43;4.30;;;3.90;;
9445;SDS011;4761;49.490;10.908;2022-12-07T14:57:09;4.27;;;3.87;;
9445;SDS011;4761;49.490;10.908;2022-12-07T14:59:36;4.53;;;4.13;;
9445;SDS011;4761;49.490;10.908;2022-12-07T15:02:01;4.50;;;3.97;;
9445;SDS011;4761;49.490;10.908;2022-12-07T15:04:27;4.83;;;4.20;;
9445;SDS011;4761;49.490;10.908;2022-12-07T15:07:00;4.43;;;3.90;;
9445;SDS011;4761;49.490;10.908;2022-12-07T15:09:27;4.97;;;4.47;;
9445;SDS011;4761;49.490;10.908;2022-12-07T15:11:52;4.37;;;3.97;;
9445;SDS011;4761;49.490;10.908;2022-12-07T15:14:18;4.40;;;4.00;;
9445;SDS011;4761;49.490;10.908;2022-12-07T15:16:44;4.80;;;4.30;;
9445;SDS011;4761;49.490;10.908;2022-12-07T15:19:20;5.00;;;4.50;;
9445;SDS011;4761;49.490;10.908;2022-12-07T15:21:48;5.20;;;4.50;;
9445;SDS011;4761;49.490;10.908;2022-12-07T15:24:14;4.83;;;4.33;;
9445;SDS011;4761;49.490;10.908;2022-12-07T15:26:40;4.57;;;4.17;;
9445;SDS011;4761;49.490;10.908;2022-12-07T15:29:06;5.33;;;4.27;;
9445;SDS011;4761;49.490;10.908;2022-12-07T15:31:33;5.37;;;4.87;;
9445;SDS011;4761;49.490;10.908;2022-12-07T15:34:00;5.20;;;4.70;;
9445;SDS011;4761;49.490;10.908;2022-12-07T15:36:26;5.73;;;5.13;;
9445;SDS011;4761;49.490;10.908;2022-12-07T15:38:54;5.00;;;4.50;;
9445;SDS011;4761;49.490;10.908;2022-12-07T15:41:20;5.33;;;4.83;;
9445;SDS011;4761;49.490;10.908;2022-12-07T15:43:46;5.20;;;4.70;;
9445;SDS011;4761;49.490;10.908;2022-12-07T15:46:31;5.87;;;5.30;;
9445;SDS011;4761;49.490;10.908;2022-12-07T15:49:00;5.70;;;5.20;;
9445;SDS011;4761;49.490;10.908;2022-12-07T15:51:27;5.27;;;4.77;;
9445;SDS011;4761;49.490;10.908;2022-12-07T15:53:53;6.07;;;4.97;;
9445;SDS011;4761;49.490;10.908;2022-12-07T15:56:19;6.87;;;5.57;;
9445;SDS011;4761;49.490;10.908;2022-12-07T15:58:45;8.70;;;6.20;;
9445;SDS011;4761;49.490;10.908;2022-12-07T16:01:11;7.57;;;6.83;;
9445;SDS011;4761;49.490;10.908;2022-12-07T16:03:38;6.40;;;5.57;;
9445;SDS011;4761;49.490;10.908;2022-12-07T16:06:04;7.07;;;5.70;;
9445;SDS011;4761;49.490;10.908;2022-12-07T16:08:30;6.77;;;5.63;;
9445;SDS011;4761;49.490;10.908;2022-12-07T16:10:55;6.10;;;5.50;;
9445;SDS011;4761;49.490;10.908;2022-12-07T16:13:21;6.07;;;5.47;;
9445;SDS011;4761;49.490;10.908;2022-12-07T16:15:46;5.97;;;5.33;;
9445;SDS011;4761;49.490;10.908;2022-12-07T16:18:12;7.10;;;6.33;;
9445;SDS011;4761;49.490;10.908;2022-12-07T16:20:37;6.87;;;5.63;;
9445;SDS011;4761;49.490;10.908;2022-12-07T16:23:03;5.57;;;5.07;;
9445;SDS011;4761;49.490;10.908;2022-12-07T16:25:29;5.90;;;5.20;;
9445;SDS011;4761;49.490;10.908;2022-12-07T16:27:54;5.90;;;5.20;;
9445;SDS011;4761;49.490;10.908;2022-12-07T16:30:20;5.13;;;4.63;;
9445;SDS011;4761;49.490;10.908;2022-12-07T16:32:45;5.47;;;4.97;;
9445;SDS011;4761;49.490;10.908;2022-12-07T16:35:11;5.43;;;4.93;;
9445;SDS011;4761;49.490;10.908;2022-12-07T16:37:38;5.87;;;5.30;;
9445;SDS011;4761;49.490;10.908;2022-12-07T16:40:04;5.07;;;4.57;;
9445;SDS011;4761;49.490;10.908;2022-12-07T16:42:33;5.87;;;5.27;;
9445;SDS011;4761;49.490;10.908;2022-12-07T16:44:59;6.03;;;5.43;;
9445;SDS011;4761;49.490;10.908;2022-12-07T16:47:26;6.83;;;5.10;;
9445;SDS011;4761;49.490;10.908;2022-12-07T16:49:52;6.07;;;5.10;;
9445;SDS011;4761;49.490;10.908;2022-12-07T16:52:20;6.23;;;5.63;;
9445;SDS011;4761;49.490;10.908;2022-12-07T16:54:47;6.10;;;5.50;;
9445;SDS011;4761;49.490;10.908;2022-12-07T16:57:13;6.67;;;5.80;;
9445;SDS011;4761;49.490;10.908;2022-12-07T16:59:38;6.47;;;5.77;;